sensor_id;sensor_type;location;lat;lon;timestamp;temperature;humidity
66962;HTU21D;53897;51.126;5.868;2023-11-21T00:00:14;22.60;48.15
66962;HTU21D;53897;51.126;5.868;2023-11-21T00:02:41;22.58;48.12
66962;HTU21D;53897;51.126;5.868;2023-11-21T00:05:08;22.58;48.08
66962;HTU21D;53897;51.126;5.868;2023-11-21T00:07:36;22.57;48.06
66962;HTU21D;53897;51.126;5.868;2023-11-21T00:10:02;22.55;48.03
66962;HTU21D;53897;51.126;5.868;2023-11-21T00:12:28;22.54;48.03
66962;HTU21D;53897;51.126;5.868;2023-11-21T00:14:55;22.52;47.99
66962;HTU21D;53897;51.126;5.868;2023-11-21T00:17:21;22.53;47.97
66962;HTU21D;53897;51.126;5.868;2023-11-21T00:19:46;22.51;47.94
66962;HTU21D;53897;51.126;5.868;2023-11-21T00:22:12;22.49;47.91
66962;HTU21D;53897;51.126;5.868;2023-11-21T00:24:38;22.48;47.90
66962;HTU21D;53897;51.126;5.868;2023-11-21T00:27:04;22.48;47.85
66962;HTU21D;53897;51.126;5.868;2023-11-21T00:29:29;22.46;47.82
66962;HTU21D;53897;51.126;5.868;2023-11-21T00:31:55;22.43;47.80
66962;HTU21D;53897;51.126;5.868;2023-11-21T00:34:21;22.41;47.79
66962;HTU21D;53897;51.126;5.868;2023-11-21T00:36:47;22.41;47.76
66962;HTU21D;53897;51.126;5.868;2023-11-21T00:39:12;22.40;47.73
66962;HTU21D;53897;51.126;5.868;2023-11-21T00:41:38;22.38;47.73
66962;HTU21D;53897;51.126;5.868;2023-11-21T00:44:04;22.37;47.70
66962;HTU21D;53897;51.126;5.868;2023-11-21T00:46:30;22.37;47.69
66962;HTU21D;53897;51.126;5.868;2023-11-21T00:48:56;22.37;47.66
66962;HTU21D;53897;51.126;5.868;2023-11-21T00:51:21;22.34;47.65
66962;HTU21D;53897;51.126;5.868;2023-11-21T00:53:47;22.34;47.62
66962;HTU21D;53897;51.126;5.868;2023-11-21T00:56:13;22.32;47.63
66962;HTU21D;53897;51.126;5.868;2023-11-21T00:58:40;22.31;47.60
66962;HTU21D;53897;51.126;5.868;2023-11-21T01:01:12;22.29;47.57
66962;HTU21D;53897;51.126;5.868;2023-11-21T01:03:38;22.27;47.57
66962;HTU21D;53897;51.126;5.868;2023-11-21T01:06:04;22.27;47.55
66962;HTU21D;53897;51.126;5.868;2023-11-21T01:08:33;22.25;47.51
66962;HTU21D;53897;51.126;5.868;2023-11-21T01:10:58;22.25;47.51
66962;HTU21D;53897;51.126;5.868;2023-11-21T01:13:26;22.22;47.48
66962;HTU21D;53897;51.126;5.868;2023-11-21T01:15:55;22.22;47.48
66962;HTU21D;53897;51.126;5.868;2023-11-21T01:18:21;22.21;47.48
66962;HTU21D;53897;51.126;5.868;2023-11-21T01:20:46;22.20;47.46
66962;HTU21D;53897;51.126;5.868;2023-11-21T01:23:13;22.19;47.44
66962;HTU21D;53897;51.126;5.868;2023-11-21T01:25:39;22.17;47.42
66962;HTU21D;53897;51.126;5.868;2023-11-21T01:28:04;22.16;47.41
66962;HTU21D;53897;51.126;5.868;2023-11-21T01:30:30;22.16;47.39
66962;HTU21D;53897;51.126;5.868;2023-11-21T01:32:58;22.13;47.36
66962;HTU21D;53897;51.126;5.868;2023-11-21T01:35:24;22.13;47.36
66962;HTU21D;53897;51.126;5.868;2023-11-21T01:37:51;22.12;47.35
66962;HTU21D;53897;51.126;5.868;2023-11-21T01:40:17;22.10;47.33
66962;HTU21D;53897;51.126;5.868;2023-11-21T01:42:43;22.09;47.32
66962;HTU21D;53897;51.126;5.868;2023-11-21T01:45:10;22.08;47.28
66962;HTU21D;53897;51.126;5.868;2023-11-21T01:47:38;22.07;47.29
66962;HTU21D;53897;51.126;5.868;2023-11-21T01:50:09;22.06;47.27
66962;HTU21D;53897;51.126;5.868;2023-11-21T01:52:38;22.05;47.23
66962;HTU21D;53897;51.126;5.868;2023-11-21T01:55:06;22.04;47.24
66962;HTU21D;53897;51.126;5.868;2023-11-21T01:57:34;22.02;47.24
66962;HTU21D;53897;51.126;5.868;2023-11-21T02:00:02;22.02;47.25
66962;HTU21D;53897;51.126;5.868;2023-11-21T02:02:45;21.99;47.22
66962;HTU21D;53897;51.126;5.868;2023-11-21T02:05:20;21.98;47.25
66962;HTU21D;53897;51.126;5.868;2023-11-21T02:07:47;21.97;47.25
66962;HTU21D;53897;51.126;5.868;2023-11-21T02:10:14;21.96;47.26
66962;HTU21D;53897;51.126;5.868;2023-11-21T02:12:42;21.94;47.26
66962;HTU21D;53897;51.126;5.868;2023-11-21T02:15:13;21.93;47.26
66962;HTU21D;53897;51.126;5.868;2023-11-21T02:17:46;21.92;47.25
66962;HTU21D;53897;51.126;5.868;2023-11-21T02:20:13;21.90;47.23
66962;HTU21D;53897;51.126;5.868;2023-11-21T02:22:56;21.90;47.21
66962;HTU21D;53897;51.126;5.868;2023-11-21T02:25:24;21.90;47.17
66962;HTU21D;53897;51.126;5.868;2023-11-21T02:27:50;21.88;47.17
66962;HTU21D;53897;51.126;5.868;2023-11-21T02:30:16;21.87;47.18
66962;HTU21D;53897;51.126;5.868;2023-11-21T02:32:42;21.85;47.20
66962;HTU21D;53897;51.126;5.868;2023-11-21T02:35:09;21.84;47.19
66962;HTU21D;53897;51.126;5.868;2023-11-21T02:37:35;21.82;47.20
66962;HTU21D;53897;51.126;5.868;2023-11-21T02:40:01;21.82;47.21
66962;HTU21D;53897;51.126;5.868;2023-11-21T02:42:31;21.81;47.19
66962;HTU21D;53897;51.126;5.868;2023-11-21T02:44:57;21.80;47.18
66962;HTU21D;53897;51.126;5.868;2023-11-21T02:47:23;21.78;47.23
66962;HTU21D;53897;51.126;5.868;2023-11-21T02:49:49;21.77;47.22
66962;HTU21D;53897;51.126;5.868;2023-11-21T02:52:15;21.75;47.22
66962;HTU21D;53897;51.126;5.868;2023-11-21T02:54:41;21.75;47.22
66962;HTU21D;53897;51.126;5.868;2023-11-21T02:57:08;21.75;47.20
66962;HTU21D;53897;51.126;5.868;2023-11-21T02:59:34;21.74;47.20
66962;HTU21D;53897;51.126;5.868;2023-11-21T03:02:00;21.72;47.18
66962;HTU21D;53897;51.126;5.868;2023-11-21T03:04:26;21.70;47.18
66962;HTU21D;53897;51.126;5.868;2023-11-21T03:06:52;21.69;47.19
66962;HTU21D;53897;51.126;5.868;2023-11-21T03:09:18;21.69;47.19
66962;HTU21D;53897;51.126;5.868;2023-11-21T03:11:44;21.69;47.19
66962;HTU21D;53897;51.126;5.868;2023-11-21T03:14:09;21.66;47.17
66962;HTU21D;53897;51.126;5.868;2023-11-21T03:16:36;21.67;47.16
66962;HTU21D;53897;51.126;5.868;2023-11-21T03:19:04;21.65;47.16
66962;HTU21D;53897;51.126;5.868;2023-11-21T03:21:30;21.64;47.15
66962;HTU21D;53897;51.126;5.868;2023-11-21T03:23:56;21.63;47.13
66962;HTU21D;53897;51.126;5.868;2023-11-21T03:26:22;21.63;47.14
66962;HTU21D;53897;51.126;5.868;2023-11-21T03:28:48;21.62;47.15
66962;HTU21D;53897;51.126;5.868;2023-11-21T03:31:13;21.60;47.15
66962;HTU21D;53897;51.126;5.868;2023-11-21T03:33:42;21.60;47.13
66962;HTU21D;53897;51.126;5.868;2023-11-21T03:36:08;21.60;47.14
66962;HTU21D;53897;51.126;5.868;2023-11-21T03:38:35;21.60;47.13
66962;HTU21D;53897;51.126;5.868;2023-11-21T03:41:01;21.58;47.15
66962;HTU21D;53897;51.126;5.868;2023-11-21T03:43:28;21.55;47.15
66962;HTU21D;53897;51.126;5.868;2023-11-21T03:45:53;21.57;47.18
66962;HTU21D;53897;51.126;5.868;2023-11-21T03:48:19;21.54;47.18
66962;HTU21D;53897;51.126;5.868;2023-11-21T03:50:45;21.54;47.18
66962;HTU21D;53897;51.126;5.868;2023-11-21T03:53:12;21.53;47.16
66962;HTU21D;53897;51.126;5.868;2023-11-21T03:55:38;21.53;47.15
66962;HTU21D;53897;51.126;5.868;2023-11-21T03:58:04;21.52;47.15
66962;HTU21D;53897;51.126;5.868;2023-11-21T04:00:29;21.51;47.15
66962;HTU21D;53897;51.126;5.868;2023-11-21T04:02:55;21.50;47.14
66962;HTU21D;53897;51.126;5.868;2023-11-21T04:05:21;21.49;47.14
66962;HTU21D;53897;51.126;5.868;2023-11-21T04:07:50;21.48;47.12
66962;HTU21D;53897;51.126;5.868;2023-11-21T04:10:16;21.47;47.12
66962;HTU21D;53897;51.126;5.868;2023-11-21T04:12:42;21.47;47.13
66962;HTU21D;53897;51.126;5.868;2023-11-21T04:15:09;21.46;47.14
66962;HTU21D;53897;51.126;5.868;2023-11-21T04:17:35;21.45;47.13
66962;HTU21D;53897;51.126;5.868;2023-11-21T04:20:03;21.45;47.12
66962;HTU21D;53897;51.126;5.868;2023-11-21T04:22:34;21.43;47.14
66962;HTU21D;53897;51.126;5.868;2023-11-21T04:24:59;21.43;47.12
66962;HTU21D;53897;51.126;5.868;2023-11-21T04:27:25;21.44;47.08
66962;HTU21D;53897;51.126;5.868;2023-11-21T04:29:50;21.42;47.08
66962;HTU21D;53897;51.126;5.868;2023-11-21T04:32:16;21.40;47.09
66962;HTU21D;53897;51.126;5.868;2023-11-21T04:34:42;21.39;47.11
66962;HTU21D;53897;51.126;5.868;2023-11-21T04:37:07;21.37;47.11
66962;HTU21D;53897;51.126;5.868;2023-11-21T04:39:34;21.38;47.10
66962;HTU21D;53897;51.126;5.868;2023-11-21T04:42:00;21.37;47.12
66962;HTU21D;53897;51.126;5.868;2023-11-21T04:44:26;21.36;47.13
66962;HTU21D;53897;51.126;5.868;2023-11-21T04:46:51;21.37;47.14
66962;HTU21D;53897;51.126;5.868;2023-11-21T04:49:17;21.36;47.13
66962;HTU21D;53897;51.126;5.868;2023-11-21T04:51:42;21.35;47.12
66962;HTU21D;53897;51.126;5.868;2023-11-21T04:54:08;21.35;47.12
66962;HTU21D;53897;51.126;5.868;2023-11-21T04:56:34;21.33;47.15
66962;HTU21D;53897;51.126;5.868;2023-11-21T04:59:00;21.33;47.11
66962;HTU21D;53897;51.126;5.868;2023-11-21T05:01:25;21.33;47.09
66962;HTU21D;53897;51.126;5.868;2023-11-21T05:03:51;21.31;47.11
66962;HTU21D;53897;51.126;5.868;2023-11-21T05:06:18;21.31;47.11
66962;HTU21D;53897;51.126;5.868;2023-11-21T05:08:43;21.30;47.11
66962;HTU21D;53897;51.126;5.868;2023-11-21T05:11:09;21.30;47.11
66962;HTU21D;53897;51.126;5.868;2023-11-21T05:13:36;21.31;47.10
66962;HTU21D;53897;51.126;5.868;2023-11-21T05:16:03;21.28;47.12
66962;HTU21D;53897;51.126;5.868;2023-11-21T05:18:31;21.27;47.12
66962;HTU21D;53897;51.126;5.868;2023-11-21T05:20:57;21.28;47.12
66962;HTU21D;53897;51.126;5.868;2023-11-21T05:23:23;21.27;47.12
66962;HTU21D;53897;51.126;5.868;2023-11-21T05:25:49;21.25;47.12
66962;HTU21D;53897;51.126;5.868;2023-11-21T05:28:14;21.25;47.12
66962;HTU21D;53897;51.126;5.868;2023-11-21T05:30:40;21.25;47.09
66962;HTU21D;53897;51.126;5.868;2023-11-21T05:33:06;21.24;47.11
66962;HTU21D;53897;51.126;5.868;2023-11-21T05:35:31;21.24;47.09
66962;HTU21D;53897;51.126;5.868;2023-11-21T05:37:57;21.23;47.09
66962;HTU21D;53897;51.126;5.868;2023-11-21T05:40:23;21.21;47.11
66962;HTU21D;53897;51.126;5.868;2023-11-21T05:42:49;21.21;47.11
66962;HTU21D;53897;51.126;5.868;2023-11-21T05:45:16;21.21;47.12
66962;HTU21D;53897;51.126;5.868;2023-11-21T05:47:45;21.21;47.14
66962;HTU21D;53897;51.126;5.868;2023-11-21T05:50:13;21.20;47.12
66962;HTU21D;53897;51.126;5.868;2023-11-21T05:52:47;21.19;47.11
66962;HTU21D;53897;51.126;5.868;2023-11-21T05:55:13;21.20;47.12
66962;HTU21D;53897;51.126;5.868;2023-11-21T05:57:41;21.18;47.08
66962;HTU21D;53897;51.126;5.868;2023-11-21T06:00:12;21.18;47.09
66962;HTU21D;53897;51.126;5.868;2023-11-21T06:02:47;21.18;47.10
66962;HTU21D;53897;51.126;5.868;2023-11-21T06:05:12;21.17;47.10
66962;HTU21D;53897;51.126;5.868;2023-11-21T06:07:38;21.17;47.10
66962;HTU21D;53897;51.126;5.868;2023-11-21T06:10:07;21.15;47.05
66962;HTU21D;53897;51.126;5.868;2023-11-21T06:12:35;21.13;47.15
66962;HTU21D;53897;51.126;5.868;2023-11-21T06:15:05;21.10;47.34
66962;HTU21D;53897;51.126;5.868;2023-11-21T06:17:34;21.11;47.53
66962;HTU21D;53897;51.126;5.868;2023-11-21T06:20:07;21.17;47.63
66962;HTU21D;53897;51.126;5.868;2023-11-21T06:22:43;21.22;47.70
66962;HTU21D;53897;51.126;5.868;2023-11-21T06:25:11;21.30;47.71
66962;HTU21D;53897;51.126;5.868;2023-11-21T06:27:44;21.39;47.66
66962;HTU21D;53897;51.126;5.868;2023-11-21T06:30:11;21.45;47.63
66962;HTU21D;53897;51.126;5.868;2023-11-21T06:32:38;21.52;47.60
66962;HTU21D;53897;51.126;5.868;2023-11-21T06:35:06;21.59;47.54
66962;HTU21D;53897;51.126;5.868;2023-11-21T06:37:32;21.64;47.50
66962;HTU21D;53897;51.126;5.868;2023-11-21T06:39:59;21.70;47.49
66962;HTU21D;53897;51.126;5.868;2023-11-21T06:42:26;21.76;47.47
66962;HTU21D;53897;51.126;5.868;2023-11-21T06:44:52;21.78;47.45
66962;HTU21D;53897;51.126;5.868;2023-11-21T06:47:19;21.81;47.41
66962;HTU21D;53897;51.126;5.868;2023-11-21T06:49:50;21.82;47.41
66962;HTU21D;53897;51.126;5.868;2023-11-21T06:52:17;21.84;47.44
66962;HTU21D;53897;51.126;5.868;2023-11-21T06:54:43;21.84;47.54
66962;HTU21D;53897;51.126;5.868;2023-11-21T06:57:11;21.87;47.56
66962;HTU21D;53897;51.126;5.868;2023-11-21T06:59:37;21.89;47.59
66962;HTU21D;53897;51.126;5.868;2023-11-21T07:02:03;21.90;47.71
66962;HTU21D;53897;51.126;5.868;2023-11-21T07:04:30;21.92;47.79
66962;HTU21D;53897;51.126;5.868;2023-11-21T07:06:56;21.93;47.79
66962;HTU21D;53897;51.126;5.868;2023-11-21T07:09:21;21.96;47.82
66962;HTU21D;53897;51.126;5.868;2023-11-21T07:11:50;21.98;47.83
66962;HTU21D;53897;51.126;5.868;2023-11-21T07:14:16;21.99;47.85
66962;HTU21D;53897;51.126;5.868;2023-11-21T07:16:42;22.02;47.91
66962;HTU21D;53897;51.126;5.868;2023-11-21T07:19:08;22.04;47.95
66962;HTU21D;53897;51.126;5.868;2023-11-21T07:21:34;22.05;48.00
66962;HTU21D;53897;51.126;5.868;2023-11-21T07:24:02;22.06;48.03
66962;HTU21D;53897;51.126;5.868;2023-11-21T07:26:29;22.09;48.00
66962;HTU21D;53897;51.126;5.868;2023-11-21T07:28:55;22.11;48.04
66962;HTU21D;53897;51.126;5.868;2023-11-21T07:31:24;22.13;48.02
66962;HTU21D;53897;51.126;5.868;2023-11-21T07:33:51;22.14;48.02
66962;HTU21D;53897;51.126;5.868;2023-11-21T07:36:17;22.16;48.02
66962;HTU21D;53897;51.126;5.868;2023-11-21T07:38:50;22.17;47.99
66962;HTU21D;53897;51.126;5.868;2023-11-21T07:41:17;22.19;47.95
66962;HTU21D;53897;51.126;5.868;2023-11-21T07:43:45;22.21;48.03
66962;HTU21D;53897;51.126;5.868;2023-11-21T07:46:12;22.24;48.11
66962;HTU21D;53897;51.126;5.868;2023-11-21T07:48:42;22.26;48.16
66962;HTU21D;53897;51.126;5.868;2023-11-21T07:51:09;22.27;48.24
66962;HTU21D;53897;51.126;5.868;2023-11-21T07:53:36;22.31;48.24
66962;HTU21D;53897;51.126;5.868;2023-11-21T07:56:08;22.32;48.31
66962;HTU21D;53897;51.126;5.868;2023-11-21T07:58:36;22.32;48.24
66962;HTU21D;53897;51.126;5.868;2023-11-21T08:01:03;22.33;48.24
66962;HTU21D;53897;51.126;5.868;2023-11-21T08:03:29;22.35;48.15
66962;HTU21D;53897;51.126;5.868;2023-11-21T08:05:58;22.35;48.10
66962;HTU21D;53897;51.126;5.868;2023-11-21T08:08:25;22.37;48.15
66962;HTU21D;53897;51.126;5.868;2023-11-21T08:10:51;22.39;48.13
66962;HTU21D;53897;51.126;5.868;2023-11-21T08:13:25;22.40;48.06
66962;HTU21D;53897;51.126;5.868;2023-11-21T08:15:54;22.41;48.05
66962;HTU21D;53897;51.126;5.868;2023-11-21T08:18:20;22.42;48.02
66962;HTU21D;53897;51.126;5.868;2023-11-21T08:20:46;22.44;47.99
66962;HTU21D;53897;51.126;5.868;2023-11-21T08:23:14;22.48;47.94
66962;HTU21D;53897;51.126;5.868;2023-11-21T08:25:42;22.49;47.90
66962;HTU21D;53897;51.126;5.868;2023-11-21T08:28:07;22.50;47.86
66962;HTU21D;53897;51.126;5.868;2023-11-21T08:30:33;22.52;47.86
66962;HTU21D;53897;51.126;5.868;2023-11-21T08:33:00;22.52;47.84
66962;HTU21D;53897;51.126;5.868;2023-11-21T08:35:26;22.55;47.86
66962;HTU21D;53897;51.126;5.868;2023-11-21T08:37:52;22.56;47.88
66962;HTU21D;53897;51.126;5.868;2023-11-21T08:40:19;22.57;47.92
66962;HTU21D;53897;51.126;5.868;2023-11-21T08:42:49;22.58;47.93
66962;HTU21D;53897;51.126;5.868;2023-11-21T08:45:17;22.61;47.93
66962;HTU21D;53897;51.126;5.868;2023-11-21T08:47:43;22.63;47.89
66962;HTU21D;53897;51.126;5.868;2023-11-21T08:50:12;22.64;47.86
66962;HTU21D;53897;51.126;5.868;2023-11-21T08:52:39;22.65;47.83
66962;HTU21D;53897;51.126;5.868;2023-11-21T08:55:07;22.66;47.92
66962;HTU21D;53897;51.126;5.868;2023-11-21T08:57:39;22.67;47.95
66962;HTU21D;53897;51.126;5.868;2023-11-21T09:00:09;22.69;47.98
66962;HTU21D;53897;51.126;5.868;2023-11-21T09:02:43;22.72;47.96
66962;HTU21D;53897;51.126;5.868;2023-11-21T09:05:13;22.72;47.91
66962;HTU21D;53897;51.126;5.868;2023-11-21T09:07:41;22.75;47.85
66962;HTU21D;53897;51.126;5.868;2023-11-21T09:10:08;22.77;47.87
66962;HTU21D;53897;51.126;5.868;2023-11-21T09:12:35;22.79;47.84
66962;HTU21D;53897;51.126;5.868;2023-11-21T09:15:02;22.79;47.79
66962;HTU21D;53897;51.126;5.868;2023-11-21T09:17:30;22.81;47.78
66962;HTU21D;53897;51.126;5.868;2023-11-21T09:19:55;22.82;47.76
66962;HTU21D;53897;51.126;5.868;2023-11-21T09:22:22;22.83;47.73
66962;HTU21D;53897;51.126;5.868;2023-11-21T09:24:51;22.84;47.70
66962;HTU21D;53897;51.126;5.868;2023-11-21T09:27:16;22.86;47.67
66962;HTU21D;53897;51.126;5.868;2023-11-21T09:29:43;22.87;47.66
66962;HTU21D;53897;51.126;5.868;2023-11-21T09:32:08;22.88;47.64
66962;HTU21D;53897;51.126;5.868;2023-11-21T09:34:40;22.90;47.62
66962;HTU21D;53897;51.126;5.868;2023-11-21T09:37:06;22.92;47.62
66962;HTU21D;53897;51.126;5.868;2023-11-21T09:39:33;22.94;47.61
66962;HTU21D;53897;51.126;5.868;2023-11-21T09:42:09;22.94;47.59
66962;HTU21D;53897;51.126;5.868;2023-11-21T09:45:03;22.95;47.58
66962;HTU21D;53897;51.126;5.868;2023-11-21T09:47:35;22.96;47.56
66962;HTU21D;53897;51.126;5.868;2023-11-21T09:50:04;22.98;47.54
66962;HTU21D;53897;51.126;5.868;2023-11-21T09:53:26;22.98;47.44
66962;HTU21D;53897;51.126;5.868;2023-11-21T09:55:27;22.98;47.37
66962;HTU21D;53897;51.126;5.868;2023-11-21T09:57:57;22.99;47.09
66962;HTU21D;53897;51.126;5.868;2023-11-21T10:00:23;22.98;46.41
66962;HTU21D;53897;51.126;5.868;2023-11-21T10:02:49;22.98;46.31
66962;HTU21D;53897;51.126;5.868;2023-11-21T10:05:16;22.97;46.41
66962;HTU21D;53897;51.126;5.868;2023-11-21T10:07:45;22.97;46.57
66962;HTU21D;53897;51.126;5.868;2023-11-21T10:10:13;22.95;46.68
66962;HTU21D;53897;51.126;5.868;2023-11-21T10:12:43;22.96;46.70
66962;HTU21D;53897;51.126;5.868;2023-11-21T10:15:16;22.98;46.73
66962;HTU21D;53897;51.126;5.868;2023-11-21T10:17:44;22.98;46.73
66962;HTU21D;53897;51.126;5.868;2023-11-21T10:20:11;23.00;46.71
66962;HTU21D;53897;51.126;5.868;2023-11-21T10:22:42;23.00;46.71
66962;HTU21D;53897;51.126;5.868;2023-11-21T10:25:11;23.01;46.75
66962;HTU21D;53897;51.126;5.868;2023-11-21T10:27:41;23.03;46.72
66962;HTU21D;53897;51.126;5.868;2023-11-21T10:30:07;23.03;46.72
66962;HTU21D;53897;51.126;5.868;2023-11-21T10:32:38;23.05;46.67
66962;HTU21D;53897;51.126;5.868;2023-11-21T10:35:05;23.02;46.65
66962;HTU21D;53897;51.126;5.868;2023-11-21T10:37:41;23.03;46.67
66962;HTU21D;53897;51.126;5.868;2023-11-21T10:40:10;23.03;46.74
66962;HTU21D;53897;51.126;5.868;2023-11-21T10:42:39;23.05;46.73
66962;HTU21D;53897;51.126;5.868;2023-11-21T10:45:08;23.05;46.73
66962;HTU21D;53897;51.126;5.868;2023-11-21T10:47:44;23.05;46.72
66962;HTU21D;53897;51.126;5.868;2023-11-21T10:50:10;23.06;46.72
66962;HTU21D;53897;51.126;5.868;2023-11-21T10:52:37;23.06;46.72
66962;HTU21D;53897;51.126;5.868;2023-11-21T10:55:20;23.06;46.71
66962;HTU21D;53897;51.126;5.868;2023-11-21T10:57:53;23.05;46.71
66962;HTU21D;53897;51.126;5.868;2023-11-21T11:00:20;23.07;46.47
66962;HTU21D;53897;51.126;5.868;2023-11-21T11:02:52;23.06;46.45
66962;HTU21D;53897;51.126;5.868;2023-11-21T11:05:21;23.06;46.40
66962;HTU21D;53897;51.126;5.868;2023-11-21T11:07:58;23.06;46.40
66962;HTU21D;53897;51.126;5.868;2023-11-21T11:10:28;23.05;46.36
66962;HTU21D;53897;51.126;5.868;2023-11-21T11:12:56;23.05;46.45
66962;HTU21D;53897;51.126;5.868;2023-11-21T11:15:24;23.05;46.54
66962;HTU21D;53897;51.126;5.868;2023-11-21T11:17:50;23.03;46.61
66962;HTU21D;53897;51.126;5.868;2023-11-21T11:20:17;23.01;46.72
66962;HTU21D;53897;51.126;5.868;2023-11-21T11:25:35;23.00;46.80
66962;HTU21D;53897;51.126;5.868;2023-11-21T11:28:19;23.01;46.79
66962;HTU21D;53897;51.126;5.868;2023-11-21T11:31:01;23.01;46.78
66962;HTU21D;53897;51.126;5.868;2023-11-21T11:33:41;23.01;46.82
66962;HTU21D;53897;51.126;5.868;2023-11-21T11:36:22;23.00;46.83
66962;HTU21D;53897;51.126;5.868;2023-11-21T11:38:50;23.01;46.86
66962;HTU21D;53897;51.126;5.868;2023-11-21T11:41:29;22.99;46.93
66962;HTU21D;53897;51.126;5.868;2023-11-21T11:43:58;23.00;46.96
66962;HTU21D;53897;51.126;5.868;2023-11-21T11:46:44;23.00;46.96
66962;HTU21D;53897;51.126;5.868;2023-11-21T11:49:29;23.01;46.96
66962;HTU21D;53897;51.126;5.868;2023-11-21T11:54:59;23.02;46.99
66962;HTU21D;53897;51.126;5.868;2023-11-21T11:57:25;23.01;46.99
66962;HTU21D;53897;51.126;5.868;2023-11-21T12:00:13;23.00;46.99
66962;HTU21D;53897;51.126;5.868;2023-11-21T12:02:48;23.01;46.98
66962;HTU21D;53897;51.126;5.868;2023-11-21T12:05:20;23.00;46.95
66962;HTU21D;53897;51.126;5.868;2023-11-21T12:07:48;22.99;46.93
66962;HTU21D;53897;51.126;5.868;2023-11-21T12:10:16;23.00;46.96
66962;HTU21D;53897;51.126;5.868;2023-11-21T12:12:57;22.98;46.94
66962;HTU21D;53897;51.126;5.868;2023-11-21T12:15:24;22.98;46.95
66962;HTU21D;53897;51.126;5.868;2023-11-21T12:17:51;22.98;46.93
66962;HTU21D;53897;51.126;5.868;2023-11-21T12:20:22;22.97;46.92
66962;HTU21D;53897;51.126;5.868;2023-11-21T12:22:55;22.96;46.90
66962;HTU21D;53897;51.126;5.868;2023-11-21T12:25:29;22.95;46.87
66962;HTU21D;53897;51.126;5.868;2023-11-21T12:27:57;22.93;46.83
66962;HTU21D;53897;51.126;5.868;2023-11-21T12:30:25;22.93;46.87
66962;HTU21D;53897;51.126;5.868;2023-11-21T12:32:55;22.92;46.86
66962;HTU21D;53897;51.126;5.868;2023-11-21T12:35:26;22.92;46.81
66962;HTU21D;53897;51.126;5.868;2023-11-21T12:37:55;22.91;46.82
66962;HTU21D;53897;51.126;5.868;2023-11-21T12:40:23;22.91;46.76
66962;HTU21D;53897;51.126;5.868;2023-11-21T12:42:52;22.91;46.62
66962;HTU21D;53897;51.126;5.868;2023-11-21T12:45:24;22.91;46.58
66962;HTU21D;53897;51.126;5.868;2023-11-21T12:47:56;22.91;46.57
66962;HTU21D;53897;51.126;5.868;2023-11-21T12:50:26;22.88;46.62
66962;HTU21D;53897;51.126;5.868;2023-11-21T12:53:04;22.87;46.68
66962;HTU21D;53897;51.126;5.868;2023-11-21T12:55:32;22.88;46.73
66962;HTU21D;53897;51.126;5.868;2023-11-21T12:58:01;22.87;46.76
66962;HTU21D;53897;51.126;5.868;2023-11-21T13:00:39;22.87;46.75
66962;HTU21D;53897;51.126;5.868;2023-11-21T13:03:09;22.87;46.75
66962;HTU21D;53897;51.126;5.868;2023-11-21T13:05:37;22.87;46.76
66962;HTU21D;53897;51.126;5.868;2023-11-21T13:08:11;22.87;46.74
66962;HTU21D;53897;51.126;5.868;2023-11-21T13:10:44;22.85;46.73
66962;HTU21D;53897;51.126;5.868;2023-11-21T13:13:13;22.84;46.72
66962;HTU21D;53897;51.126;5.868;2023-11-21T13:15:54;22.83;46.69
66962;HTU21D;53897;51.126;5.868;2023-11-21T13:18:23;22.81;46.72
66962;HTU21D;53897;51.126;5.868;2023-11-21T13:20:50;22.80;46.74
66962;HTU21D;53897;51.126;5.868;2023-11-21T13:23:16;22.79;46.78
66962;HTU21D;53897;51.126;5.868;2023-11-21T13:25:42;22.80;46.80
66962;HTU21D;53897;51.126;5.868;2023-11-21T13:28:11;22.81;46.82
66962;HTU21D;53897;51.126;5.868;2023-11-21T13:30:38;22.80;46.83
66962;HTU21D;53897;51.126;5.868;2023-11-21T13:33:06;22.81;46.85
66962;HTU21D;53897;51.126;5.868;2023-11-21T13:35:39;22.79;46.85
66962;HTU21D;53897;51.126;5.868;2023-11-21T13:38:11;22.79;46.86
66962;HTU21D;53897;51.126;5.868;2023-11-21T13:40:39;22.80;46.85
66962;HTU21D;53897;51.126;5.868;2023-11-21T13:43:16;22.78;46.84
66962;HTU21D;53897;51.126;5.868;2023-11-21T13:45:44;22.77;46.83
66962;HTU21D;53897;51.126;5.868;2023-11-21T13:48:13;22.78;46.83
66962;HTU21D;53897;51.126;5.868;2023-11-21T13:50:46;22.77;46.83
66962;HTU21D;53897;51.126;5.868;2023-11-21T13:53:21;22.77;46.83
66962;HTU21D;53897;51.126;5.868;2023-11-21T13:55:54;22.75;46.82
66962;HTU21D;53897;51.126;5.868;2023-11-21T13:58:21;22.75;46.81
66962;HTU21D;53897;51.126;5.868;2023-11-21T14:01:05;22.73;46.80
66962;HTU21D;53897;51.126;5.868;2023-11-21T14:03:31;22.71;46.80
66962;HTU21D;53897;51.126;5.868;2023-11-21T14:06:10;22.72;46.83
66962;HTU21D;53897;51.126;5.868;2023-11-21T14:08:41;22.71;46.87
66962;HTU21D;53897;51.126;5.868;2023-11-21T14:11:07;22.72;46.93
66962;HTU21D;53897;51.126;5.868;2023-11-21T14:13:33;22.71;46.99
66962;HTU21D;53897;51.126;5.868;2023-11-21T14:15:59;22.72;47.02
66962;HTU21D;53897;51.126;5.868;2023-11-21T14:18:28;22.72;47.02
66962;HTU21D;53897;51.126;5.868;2023-11-21T14:21:03;22.73;46.64
66962;HTU21D;53897;51.126;5.868;2023-11-21T14:23:28;22.73;46.53
66962;HTU21D;53897;51.126;5.868;2023-11-21T14:25:55;22.72;46.56
66962;HTU21D;53897;51.126;5.868;2023-11-21T14:28:21;22.72;46.60
66962;HTU21D;53897;51.126;5.868;2023-11-21T14:30:48;22.71;46.68
66962;HTU21D;53897;51.126;5.868;2023-11-21T14:33:13;22.71;46.73
66962;HTU21D;53897;51.126;5.868;2023-11-21T14:35:42;22.69;46.74
66962;HTU21D;53897;51.126;5.868;2023-11-21T14:38:12;22.70;46.77
66962;HTU21D;53897;51.126;5.868;2023-11-21T14:40:39;22.68;46.76
66962;HTU21D;53897;51.126;5.868;2023-11-21T14:43:05;22.66;46.76
66962;HTU21D;53897;51.126;5.868;2023-11-21T14:45:32;22.67;46.75
66962;HTU21D;53897;51.126;5.868;2023-11-21T14:47:58;22.65;46.76
66962;HTU21D;53897;51.126;5.868;2023-11-21T14:50:42;22.63;46.77
66962;HTU21D;53897;51.126;5.868;2023-11-21T14:53:08;22.65;46.82
66962;HTU21D;53897;51.126;5.868;2023-11-21T14:55:35;22.65;46.86
66962;HTU21D;53897;51.126;5.868;2023-11-21T14:58:19;22.66;46.89
66962;HTU21D;53897;51.126;5.868;2023-11-21T15:00:58;22.66;46.93
66962;HTU21D;53897;51.126;5.868;2023-11-21T15:03:28;22.66;46.93
66962;HTU21D;53897;51.126;5.868;2023-11-21T15:06:03;22.67;46.93
66962;HTU21D;53897;51.126;5.868;2023-11-21T15:08:52;22.67;46.96
66962;HTU21D;53897;51.126;5.868;2023-11-21T15:11:25;22.67;46.98
66962;HTU21D;53897;51.126;5.868;2023-11-21T15:13:56;22.69;47.00
66962;HTU21D;53897;51.126;5.868;2023-11-21T15:16:22;22.71;46.99
66962;HTU21D;53897;51.126;5.868;2023-11-21T15:18:48;22.72;46.91
66962;HTU21D;53897;51.126;5.868;2023-11-21T15:21:14;22.72;46.91
66962;HTU21D;53897;51.126;5.868;2023-11-21T15:23:40;22.73;46.90
66962;HTU21D;53897;51.126;5.868;2023-11-21T15:26:07;22.72;46.91
66962;HTU21D;53897;51.126;5.868;2023-11-21T15:28:34;22.72;46.92